Time;durP1;ratioP1;P1;durP2;ratioP2;P2;SDS_P1;SDS_P2;PMS_P1;PMS_P2;Temp;Humidity;BMP_temperature;BMP_pressure;BME280_temperature;BME280_humidity;BME280_pressure;Samples;Min_cycle;Max_cycle;Signal;HPM_P1;HPM_P2
2023/05/12 00:00:25;;;;;;;;;;;;;;;18.28;43.26;101304.59;4111561;28;20021;-65
2023/05/12 00:12:05;;;;;;;;;;;;;;;18.18;43.63;101304.19;4101963;28;19930;-65
2023/05/12 00:14:07;;;;;;;;;;;;;;;18.14;43.41;101302.97;4087345;29;20043;-65
2023/05/12 00:16:09;;;;;;;;;;;;;;;18.12;43.54;101305.91;4104642;28;20025;-65
2023/05/12 00:18:11;;;;;;;;;;;;;;;18.04;43.92;101300.69;4104350;28;20413;-65
2023/05/12 00:20:13;;;;;;;;;;;;;;;17.96;43.86;101293.53;4103993;28;20021;-65
2023/05/12 00:22:15;;;;;;;;;;;;;;;17.89;44.21;101297.34;4102735;28;20062;-65
2023/05/12 00:24:17;;;;;;;;;;;;;;;17.84;44.21;101296.03;4107005;28;20464;-65
2023/05/12 00:26:19;;;;;;;;;;;;;;;17.81;44.38;101301.09;4106350;28;19961;-65
2023/05/12 00:28:23;;;;;;;;;;;;;;;17.78;44.59;101296.03;4106527;28;20528;-66
2023/05/12 00:30:25;;;;;;;;;;;;;;;17.78;44.65;101304.25;4104989;28;20029;-65
2023/05/12 00:32:27;;;;;;;;;;;;;;;17.80;44.46;101299.41;4089239;29;19927;-65
2023/05/12 00:34:29;;;;;;;;;;;;;;;17.79;44.30;101298.56;4106916;28;20045;-65
2023/05/12 00:36:31;;;;;;;;;;;;;;;17.77;44.63;101303.41;4089570;28;20013;-65
2023/05/12 00:38:35;;;;;;;;;;;;;;;17.71;44.89;101303.38;4088978;29;20050;-66
2023/05/12 00:40:38;;;;;;;;;;;;;;;17.61;44.90;101304.66;4106324;28;20021;-66
2023/05/12 00:42:40;;;;;;;;;;;;;;;17.59;45.35;101304.03;4106381;28;20341;-66
2023/05/12 00:44:46;;;;;;;;;;;;;;;17.54;45.19;101303.81;4104976;28;20025;-66
2023/05/12 00:46:48;;;;;;;;;;;;;;;17.51;45.21;101300.66;4106588;28;20029;-66
2023/05/12 00:48:50;;;;;;;;;;;;;;;17.50;45.21;101305.28;4106601;28;20492;-65
2023/05/12 00:50:52;;;;;;;;;;;;;;;17.48;45.53;101307.41;4073392;29;20482;-65
2023/05/12 00:52:54;;;;;;;;;;;;;;;17.45;45.49;101302.34;4106407;28;20421;-66
2023/05/12 00:54:56;;;;;;;;;;;;;;;17.42;45.71;101302.75;4106543;28;20021;-66
2023/05/12 00:56:58;;;;;;;;;;;;;;;17.39;45.89;101305.91;4089387;29;20461;-66
2023/05/12 00:59:00;;;;;;;;;;;;;;;17.39;45.82;101301.28;4106844;28;20048;-65
2023/05/12 01:01:03;;;;;;;;;;;;;;;17.36;45.97;101304.44;4103640;28;20028;-65
2023/05/12 01:03:06;;;;;;;;;;;;;;;17.31;45.93;101301.50;4088413;29;20033;-65
2023/05/12 01:05:09;;;;;;;;;;;;;;;17.32;46.08;101307.78;4088117;29;20009;-66
2023/05/12 01:07:12;;;;;;;;;;;;;;;17.32;45.98;101302.31;4089422;28;20017;-65
2023/05/12 01:09:15;;;;;;;;;;;;;;;17.32;45.61;101299.59;4105193;28;20489;-65
2023/05/12 01:11:17;;;;;;;;;;;;;;;17.34;45.64;101305.69;4089163;28;20019;-65
2023/05/12 01:13:19;;;;;;;;;;;;;;;17.34;45.56;101303.81;4103587;28;20035;-65
2023/05/12 01:15:23;;;;;;;;;;;;;;;17.32;45.71;101311.38;4088717;29;20010;-65
2023/05/12 01:17:29;;;;;;;;;;;;;;;17.31;45.68;101306.13;4088959;29;20050;-65
2023/05/12 01:19:38;;;;;;;;;;;;;;;17.26;45.82;101310.31;4105432;28;20457;-65
2023/05/12 01:21:42;;;;;;;;;;;;;;;17.21;46.00;101307.34;4088401;29;20026;-65
2023/05/12 01:23:46;;;;;;;;;;;;;;;17.21;45.53;101315.56;4104243;28;20061;-66
2023/05/12 01:25:49;;;;;;;;;;;;;;;17.21;45.43;101318.28;4089819;28;20018;-65
2023/05/12 01:27:52;;;;;;;;;;;;;;;17.24;45.60;101320.59;4104138;28;19969;-65
2023/05/12 01:29:58;;;;;;;;;;;;;;;17.22;45.80;101317.22;4104293;28;20539;-65
2023/05/12 01:32:00;;;;;;;;;;;;;;;17.20;45.43;101319.31;4088852;28;20399;-65
2023/05/12 01:34:02;;;;;;;;;;;;;;;17.20;45.62;101313.03;4103873;28;20985;-65
2023/05/12 01:36:05;;;;;;;;;;;;;;;17.21;45.55;101321.00;4087574;29;20453;-65
2023/05/12 01:38:08;;;;;;;;;;;;;;;17.21;45.16;101323.75;4104804;28;20394;-66
2023/05/12 01:40:15;;;;;;;;;;;;;;;17.21;45.33;101318.28;4073188;29;20492;-65
2023/05/12 01:42:17;;;;;;;;;;;;;;;17.20;45.42;101319.31;4088379;29;20033;-65
2023/05/12 01:44:21;;;;;;;;;;;;;;;17.14;45.28;101316.59;4087562;29;20576;-65
2023/05/12 01:46:23;;;;;;;;;;;;;;;17.07;45.44;101313.84;4105840;28;20362;-67
2023/05/12 01:48:26;;;;;;;;;;;;;;;17.07;45.57;101319.31;4087953;29;20424;-65
2023/05/12 01:50:30;;;;;;;;;;;;;;;17.08;45.60;101320.97;4088241;29;20026;-65
2023/05/12 01:52:33;;;;;;;;;;;;;;;17.05;45.66;101315.91;4073812;29;20033;-66
2023/05/12 01:54:36;;;;;;;;;;;;;;;17.04;45.42;101325.16;4086116;29;20436;-66
2023/05/12 01:56:38;;;;;;;;;;;;;;;17.04;45.28;101316.97;4104378;28;20021;-65
2023/05/12 01:58:41;;;;;;;;;;;;;;;17.03;45.48;101316.13;4087560;29;20014;-66
2023/05/12 02:00:44;;;;;;;;;;;;;;;17.05;45.21;101321.38;4087146;29;20020;-65
2023/05/12 02:02:51;;;;;;;;;;;;;;;17.04;45.67;101319.72;4083205;29;20036;-65
2023/05/12 02:04:53;;;;;;;;;;;;;;;16.97;45.53;101322.41;4086268;29;20400;-66
2023/05/12 02:06:56;;;;;;;;;;;;;;;16.95;45.56;101327.22;4105024;28;20024;-65
2023/05/12 02:08:59;;;;;;;;;;;;;;;16.93;45.55;101330.16;4104499;28;20127;-66
2023/05/12 02:11:05;;;;;;;;;;;;;;;16.91;45.43;101321.34;4105030;28;20016;-66
2023/05/12 02:13:07;;;;;;;;;;;;;;;16.90;45.58;101329.75;4087996;29;20025;-65
2023/05/12 02:15:10;;;;;;;;;;;;;;;16.89;45.64;101331.59;4088143;28;20473;-66
2023/05/12 02:17:18;;;;;;;;;;;;;;;16.91;45.46;101329.53;4088326;29;20026;-66
2023/05/12 02:19:22;;;;;;;;;;;;;;;16.89;45.64;101337.06;4087964;29;20042;-65
2023/05/12 02:21:25;;;;;;;;;;;;;;;16.85;45.55;101330.31;4103109;28;20033;-65
2023/05/12 02:23:28;;;;;;;;;;;;;;;16.87;45.61;101333.72;4087156;29;20017;-65
2023/05/12 02:25:30;;;;;;;;;;;;;;;16.88;45.21;101340.84;4105367;28;20036;-65
2023/05/12 02:27:32;;;;;;;;;;;;;;;16.83;45.71;101340.56;4104572;28;20353;-65
2023/05/12 02:29:36;;;;;;;;;;;;;;;16.80;45.58;101337.41;4057412;29;20042;-65
2023/05/12 02:31:39;;;;;;;;;;;;;;;16.74;45.81;101348.13;4087687;29;20046;-65
2023/05/12 02:33:51;;;;;;;;;;;;;;;16.72;45.72;101346.63;4103417;28;20028;-66
2023/05/12 02:35:54;;;;;;;;;;;;;;;16.67;45.66;101347.22;4103576;28;20397;-65
2023/05/12 02:37:57;;;;;;;;;;;;;;;16.66;45.93;101345.56;4070783;29;20053;-65
2023/05/12 02:39:59;;;;;;;;;;;;;;;16.64;45.43;101346.81;4087431;29;20425;-65
2023/05/12 02:42:01;;;;;;;;;;;;;;;16.62;45.61;101346.16;4104318;28;20037;-65
2023/05/12 02:44:03;;;;;;;;;;;;;;;16.56;45.96;101340.47;4087244;29;20053;-65
2023/05/12 02:46:06;;;;;;;;;;;;;;;16.58;45.86;101340.25;4087593;29;20056;-65
2023/05/12 02:48:08;;;;;;;;;;;;;;;16.56;45.66;101342.34;4102524;28;20041;-65
2023/05/12 02:50:11;;;;;;;;;;;;;;;16.48;45.87;101350.72;4087947;29;20025;-65
2023/05/12 02:52:13;;;;;;;;;;;;;;;16.49;46.05;101353.22;4105052;28;20024;-65
2023/05/12 02:54:15;;;;;;;;;;;;;;;16.39;45.79;101339.13;4087028;29;20026;-65
2023/05/12 02:56:19;;;;;;;;;;;;;;;16.40;45.96;101349.81;4087672;29;19938;-65
2023/05/12 02:58:21;;;;;;;;;;;;;;;16.41;46.09;101350.69;4072098;29;20025;-65
2023/05/12 03:00:23;;;;;;;;;;;;;;;16.42;46.02;101346.88;4087420;28;20103;-65
2023/05/12 03:02:25;;;;;;;;;;;;;;;16.40;46.13;101346.25;4086474;29;20022;-65
2023/05/12 03:04:27;;;;;;;;;;;;;;;16.30;46.25;101345.75;4087154;29;20037;-65
2023/05/12 03:06:30;;;;;;;;;;;;;;;16.26;46.47;101345.34;4087023;29;20485;-65
2023/05/12 03:08:33;;;;;;;;;;;;;;;16.23;46.59;101340.28;4102552;28;20028;-65
2023/05/12 03:10:36;;;;;;;;;;;;;;;16.24;46.15;101343.84;4086662;29;19946;-65
2023/05/12 03:12:38;;;;;;;;;;;;;;;16.27;46.18;101343.44;4104265;28;20017;-65
2023/05/12 03:14:41;;;;;;;;;;;;;;;16.26;46.30;101349.94;4104065;28;20025;-65
2023/05/12 03:16:43;;;;;;;;;;;;;;;16.21;46.24;101351.38;4103094;28;20025;-65
2023/05/12 03:18:46;;;;;;;;;;;;;;;16.15;46.61;101349.44;4087574;29;19951;-65
2023/05/12 03:20:50;;;;;;;;;;;;;;;16.14;46.61;101352.38;4087150;29;20030;-65
2023/05/12 03:22:53;;;;;;;;;;;;;;;16.09;46.50;101343.97;4103840;28;19961;-65
2023/05/12 03:24:57;;;;;;;;;;;;;;;16.05;46.85;101348.97;4086933;28;19934;-65
2023/05/12 03:27:01;;;;;;;;;;;;;;;15.98;47.09;101348.91;4103040;28;20029;-65
2023/05/12 03:29:03;;;;;;;;;;;;;;;15.94;47.12;101350.34;4102647;28;20013;-65
2023/05/12 03:31:05;;;;;;;;;;;;;;;15.90;47.38;101359.13;4102445;28;20475;-64
2023/05/12 03:33:07;;;;;;;;;;;;;;;15.87;47.24;101363.06;4087593;29;20057;-65
2023/05/12 03:35:11;;;;;;;;;;;;;;;15.88;47.17;101358.47;4087289;29;20078;-65
2023/05/12 03:37:13;;;;;;;;;;;;;;;15.94;47.23;101354.94;4087257;29;19930;-65
2023/05/12 03:39:16;;;;;;;;;;;;;;;15.97;46.94;101360.00;4086695;29;20018;-66
2023/05/12 03:41:18;;;;;;;;;;;;;;;15.97;47.15;101357.28;4103535;28;20452;-65
2023/05/12 03:43:21;;;;;;;;;;;;;;;15.96;47.49;101364.63;4071372;29;20018;-66
2023/05/12 03:45:24;;;;;;;;;;;;;;;15.88;47.65;101358.47;4087034;28;20021;-66
2023/05/12 03:47:26;;;;;;;;;;;;;;;15.83;47.65;101357.19;4086344;29;20041;-66
2023/05/12 03:49:28;;;;;;;;;;;;;;;15.76;47.89;101358.97;4102544;28;20048;-66
2023/05/12 03:51:30;;;;;;;;;;;;;;;15.71;47.94;101358.72;4104069;28;20017;-65
2023/05/12 03:53:32;;;;;;;;;;;;;;;15.71;47.77;101363.34;4086208;29;20036;-66
2023/05/12 03:55:38;;;;;;;;;;;;;;;15.68;47.94;101362.66;4087105;29;19970;-66
2023/05/12 03:57:40;;;;;;;;;;;;;;;15.73;47.97;101369.41;4072422;29;20453;-66
2023/05/12 03:59:44;;;;;;;;;;;;;;;15.70;48.24;101367.91;4107277;28;20025;-66
2023/05/12 04:01:48;;;;;;;;;;;;;;;15.64;48.47;101365.97;4075141;29;20401;-65
2023/05/12 04:03:50;;;;;;;;;;;;;;;15.63;48.25;101361.59;4091080;29;20046;-66
2023/05/12 04:05:57;;;;;;;;;;;;;;;15.65;48.12;101368.50;4090872;29;20033;-65
2023/05/12 04:07:59;;;;;;;;;;;;;;;15.62;48.54;101363.44;4091232;29;20073;-65
2023/05/12 04:10:01;;;;;;;;;;;;;;;15.58;48.35;101372.19;4107492;28;20017;-65
2023/05/12 04:12:06;;;;;;;;;;;;;;;15.59;48.06;101365.72;4106053;28;19958;-66
2023/05/12 04:14:08;;;;;;;;;;;;;;;15.58;48.25;101359.44;4108139;28;20361;-64
2023/05/12 04:16:12;;;;;;;;;;;;;;;15.60;48.42;101370.97;4107707;28;20025;-65
2023/05/12 04:18:14;;;;;;;;;;;;;;;15.58;47.88;101378.50;4107933;28;19989;-65
2023/05/12 04:20:16;;;;;;;;;;;;;;;15.62;48.14;101376.22;4090284;29;20009;-65
2023/05/12 04:22:18;;;;;;;;;;;;;;;15.61;47.94;101371.81;4074761;29;20653;-64
2023/05/12 04:24:20;;;;;;;;;;;;;;;15.66;47.65;101380.25;4107025;28;20017;-64
2023/05/12 04:26:22;;;;;;;;;;;;;;;15.71;47.70;101376.94;4073739;29;20018;-63
2023/05/12 04:28:26;;;;;;;;;;;;;;;15.74;47.80;101382.00;4089866;29;20025;-64
2023/05/12 04:30:28;;;;;;;;;;;;;;;15.68;47.97;101381.72;4073434;29;20030;-64
2023/05/12 04:32:30;;;;;;;;;;;;;;;15.68;47.84;101381.72;4088906;28;20029;-65
2023/05/12 04:34:32;;;;;;;;;;;;;;;15.75;47.89;101383.66;4089656;29;20033;-63
2023/05/12 04:36:34;;;;;;;;;;;;;;;15.80;47.35;101383.97;4104788;28;20560;-64
2023/05/12 04:38:37;;;;;;;;;;;;;;;15.83;47.63;101389.88;4091675;28;19962;-64
2023/05/12 04:40:39;;;;;;;;;;;;;;;15.83;47.56;101381.69;4088253;29;20025;-65
2023/05/12 04:42:41;;;;;;;;;;;;;;;15.84;47.60;101388.81;4088659;28;20058;-64
2023/05/12 04:44:46;;;;;;;;;;;;;;;15.83;47.40;101378.97;4088498;29;20253;-66
2023/05/12 04:46:52;;;;;;;;;;;;;;;15.82;47.76;101384.63;4073811;29;19954;-66
2023/05/12 04:48:54;;;;;;;;;;;;;;;15.82;47.78;101388.16;4105093;28;20432;-66
2023/05/12 04:50:58;;;;;;;;;;;;;;;15.83;47.74;101386.28;4058872;29;20030;-66
2023/05/12 04:53:00;;;;;;;;;;;;;;;15.85;47.60;101392.41;4106501;28;19994;-66
2023/05/12 04:55:02;;;;;;;;;;;;;;;15.87;47.69;101390.31;4107027;28;20025;-65
2023/05/12 04:57:04;;;;;;;;;;;;;;;15.89;47.69;101398.28;4089865;29;20397;-66
2023/05/12 04:59:07;;;;;;;;;;;;;;;15.85;47.89;101395.94;4089452;29;19935;-66
2023/05/12 05:01:12;;;;;;;;;;;;;;;15.88;47.20;101400.19;4088488;29;20045;-65
2023/05/12 05:03:14;;;;;;;;;;;;;;;15.94;47.00;101399.41;4073699;29;19969;-65
2023/05/12 05:05:17;;;;;;;;;;;;;;;15.98;46.98;101400.66;4105609;28;20025;-66
2023/05/12 05:07:19;;;;;;;;;;;;;;;16.02;47.18;101401.13;4087611;29;20014;-64
2023/05/12 05:09:21;;;;;;;;;;;;;;;16.03;46.94;101405.53;4104804;28;20074;-65
2023/05/12 05:11:25;;;;;;;;;;;;;;;16.04;47.23;101410.78;4074507;29;20029;-65
2023/05/12 05:13:27;;;;;;;;;;;;;;;16.01;47.37;101407.63;4087984;29;20449;-65
2023/05/12 05:15:29;;;;;;;;;;;;;;;15.99;47.09;101410.53;4089190;29;20030;-65
2023/05/12 05:17:32;;;;;;;;;;;;;;;16.01;47.22;101410.34;4088880;29;19963;-66
2023/05/12 05:19:34;;;;;;;;;;;;;;;16.09;46.73;101414.81;4073890;29;20029;-66
2023/05/12 05:21:36;;;;;;;;;;;;;;;16.14;46.80;101410.44;4106946;28;20028;-66
2023/05/12 05:23:39;;;;;;;;;;;;;;;16.21;47.12;101414.06;4088640;28;19930;-64
2023/05/12 05:25:42;;;;;;;;;;;;;;;16.23;46.60;101416.59;4088407;29;19938;-65
2023/05/12 05:27:44;;;;;;;;;;;;;;;16.26;46.76;101412.63;4107325;28;20013;-66
2023/05/12 05:29:46;;;;;;;;;;;;;;;16.27;46.48;101415.16;4086958;29;20005;-66
2023/05/12 05:31:49;;;;;;;;;;;;;;;16.26;46.96;101416.19;4087283;29;20389;-66
2023/05/12 05:33:52;;;;;;;;;;;;;;;16.29;46.44;101420.41;4072780;29;20062;-66
2023/05/12 05:35:55;;;;;;;;;;;;;;;16.32;46.07;101412.69;4080525;29;20021;-66
2023/05/12 05:37:57;;;;;;;;;;;;;;;16.31;46.45;101410.97;4105237;28;20116;-67
2023/05/12 05:40:00;;;;;;;;;;;;;;;16.31;46.14;101421.06;4056634;29;19931;-65
2023/05/12 05:42:02;;;;;;;;;;;;;;;16.31;46.54;101416.44;4072402;29;20009;-66
2023/05/12 05:44:05;;;;;;;;;;;;;;;16.33;46.35;101416.22;4087476;29;20022;-66
2023/05/12 05:46:07;;;;;;;;;;;;;;;16.37;45.89;101426.53;4088591;29;20025;-66
2023/05/12 05:48:10;;;;;;;;;;;;;;;16.39;46.37;101424.47;4087984;29;20006;-66
2023/05/12 05:50:14;;;;;;;;;;;;;;;16.40;46.54;101428.03;4088277;29;20034;-66
2023/05/12 05:52:17;;;;;;;;;;;;;;;16.39;46.48;101424.47;4103786;28;20034;-66
2023/05/12 05:54:20;;;;;;;;;;;;;;;16.44;46.22;101429.34;4105121;28;20032;-66
2023/05/12 05:56:22;;;;;;;;;;;;;;;16.45;46.77;101428.28;4104537;28;20017;-66
2023/05/12 05:58:25;;;;;;;;;;;;;;;16.48;46.85;101433.34;4073397;29;20018;-66
2023/05/12 06:00:27;;;;;;;;;;;;;;;16.52;46.75;101431.91;4103549;28;20626;-66
2023/05/12 06:02:30;;;;;;;;;;;;;;;16.52;46.46;101429.19;4087026;29;20496;-65
2023/05/12 06:04:34;;;;;;;;;;;;;;;16.54;46.60;101434.44;4073336;29;20465;-65
2023/05/12 06:06:37;;;;;;;;;;;;;;;16.56;46.69;101438.63;4105636;28;20025;-65
2023/05/12 06:08:41;;;;;;;;;;;;;;;16.57;46.38;101437.59;4073270;29;20410;-65
2023/05/12 06:10:43;;;;;;;;;;;;;;;16.61;46.56;101437.19;4105423;28;20025;-65
2023/05/12 06:12:45;;;;;;;;;;;;;;;16.61;45.99;101443.47;4106029;28;20373;-65
2023/05/12 06:14:49;;;;;;;;;;;;;;;16.62;46.16;101434.28;4106742;28;19936;-65
2023/05/12 06:16:51;;;;;;;;;;;;;;;16.66;46.30;101441.03;4105893;28;20038;-66
2023/05/12 06:18:54;;;;;;;;;;;;;;;16.71;46.15;101440.41;4074262;29;20029;-65
2023/05/12 06:20:56;;;;;;;;;;;;;;;16.73;46.18;101441.88;4105737;28;19930;-64
2023/05/12 06:22:59;;;;;;;;;;;;;;;16.67;46.38;101426.31;4089626;29;20026;-65
2023/05/12 06:25:02;;;;;;;;;;;;;;;16.82;46.32;101447.16;4089274;28;20469;-65
2023/05/12 06:27:04;;;;;;;;;;;;;;;16.86;46.10;101445.75;4106067;28;19993;-65
2023/05/12 06:29:07;;;;;;;;;;;;;;;16.89;45.92;101440.75;4106436;28;20516;-65
2023/05/12 06:31:09;;;;;;;;;;;;;;;16.91;46.14;101457.78;4073150;29;20025;-65
2023/05/12 06:33:11;;;;;;;;;;;;;;;16.91;45.52;101452.31;4105313;28;19973;-65
2023/05/12 06:35:13;;;;;;;;;;;;;;;16.93;46.02;101450.22;4089284;29;20012;-65
2023/05/12 06:37:15;;;;;;;;;;;;;;;16.97;45.80;101453.38;4105896;28;20029;-64
2023/05/12 06:39:18;;;;;;;;;;;;;;;17.02;46.19;101458.22;4075819;29;20069;-65
2023/05/12 06:41:23;;;;;;;;;;;;;;;17.06;46.23;101457.63;4087237;29;19954;-66
2023/05/12 06:43:26;;;;;;;;;;;;;;;17.14;45.88;101459.34;4091008;28;19997;-66
2023/05/12 06:45:30;;;;;;;;;;;;;;;17.21;45.70;101451.16;4105974;28;20356;-65
2023/05/12 06:47:35;;;;;;;;;;;;;;;17.26;45.58;101452.25;4088753;29;20021;-66
2023/05/12 06:49:37;;;;;;;;;;;;;;;17.33;45.42;101449.53;4106387;28;20009;-66
2023/05/12 06:51:39;;;;;;;;;;;;;;;17.37;45.51;101450.81;4105352;28;20384;-65
2023/05/12 06:53:45;;;;;;;;;;;;;;;17.43;45.16;101450.00;4105849;28;20088;-66
2023/05/12 06:55:49;;;;;;;;;;;;;;;17.48;45.19;101454.84;4088156;29;20025;-66
2023/05/12 06:57:54;;;;;;;;;;;;;;;17.52;45.41;101449.81;4086249;29;20643;-66
2023/05/12 06:59:56;;;;;;;;;;;;;;;17.56;44.86;101456.56;4103700;28;20109;-66
2023/05/12 07:01:58;;;;;;;;;;;;;;;17.60;44.88;101453.22;4105736;28;20654;-66
2023/05/12 07:04:00;;;;;;;;;;;;;;;17.64;45.01;101454.47;4105599;28;20013;-66
2023/05/12 07:06:02;;;;;;;;;;;;;;;17.68;45.10;101459.50;4099337;28;20016;-66
2023/05/12 07:08:04;;;;;;;;;;;;;;;17.72;44.81;101456.16;4091248;28;19934;-66
2023/05/12 07:10:07;;;;;;;;;;;;;;;17.75;44.75;101460.38;4096729;28;20029;-66
2023/05/12 07:12:10;;;;;;;;;;;;;;;17.78;44.85;101459.97;4104454;28;20026;-66
2023/05/12 07:14:12;;;;;;;;;;;;;;;17.83;44.60;101462.91;4103957;28;20020;-66
2023/05/12 07:16:15;;;;;;;;;;;;;;;17.87;44.50;101460.59;4105022;28;20017;-66
2023/05/12 07:18:17;;;;;;;;;;;;;;;17.90;44.46;101461.06;4104337;28;20013;-65
2023/05/12 07:20:19;;;;;;;;;;;;;;;17.92;44.16;101461.69;4072290;29;20494;-66
2023/05/12 07:22:22;;;;;;;;;;;;;;;17.95;44.32;101461.28;4104910;28;19926;-66
2023/05/12 07:24:24;;;;;;;;;;;;;;;17.99;44.39;101453.50;4105509;28;20372;-66
2023/05/12 07:26:27;;;;;;;;;;;;;;;18.03;44.38;101460.25;4104922;28;20016;-66
2023/05/12 07:28:34;;;;;;;;;;;;;;;18.06;44.29;101459.81;4105355;28;20445;-65
2023/05/12 07:30:36;;;;;;;;;;;;;;;18.09;44.21;101456.66;4105100;28;20013;-65
2023/05/12 07:32:38;;;;;;;;;;;;;;;18.13;44.18;101457.09;4106464;28;20240;-66
2023/05/12 07:34:41;;;;;;;;;;;;;;;18.14;44.01;101451.41;4109561;28;20032;-65
2023/05/12 07:36:42;;;;;;;;;;;;;;;18.19;44.23;101456.25;4110327;28;20016;-65
2023/05/12 07:38:44;;;;;;;;;;;;;;;18.22;44.21;101453.09;4110205;28;20030;-65
2023/05/12 07:40:46;;;;;;;;;;;;;;;18.25;43.79;101463.59;4112365;28;20016;-65
2023/05/12 07:42:48;;;;;;;;;;;;;;;18.28;43.74;101457.72;4112319;28;19973;-63
2023/05/12 07:44:52;;;;;;;;;;;;;;;18.32;43.85;101453.53;4112161;28;20017;-64
2023/05/12 07:46:54;;;;;;;;;;;;;;;18.34;43.85;101464.25;4112864;28;20013;-63
2023/05/12 07:48:56;;;;;;;;;;;;;;;18.35;43.85;101454.97;4112893;28;20474;-64
2023/05/12 07:50:58;;;;;;;;;;;;;;;18.40;43.72;101460.69;4080919;29;20317;-64
2023/05/12 07:53:00;;;;;;;;;;;;;;;18.42;43.74;101457.72;4112244;28;19969;-64
2023/05/12 07:55:02;;;;;;;;;;;;;;;18.46;43.74;101459.78;4113178;28;20030;-64
2023/05/12 07:57:04;;;;;;;;;;;;;;;18.48;43.78;101465.06;4111960;28;20397;-65
2023/05/12 07:59:07;;;;;;;;;;;;;;;18.51;43.60;101457.28;4095346;28;20025;-63
2023/05/12 08:01:12;;;;;;;;;;;;;;;18.56;43.42;101456.66;4112177;28;20025;-64
2023/05/12 08:03:15;;;;;;;;;;;;;;;18.58;43.58;101460.00;4095991;29;20399;-65
2023/05/12 08:05:17;;;;;;;;;;;;;;;18.61;43.12;101456.00;4113352;28;19976;-63
2023/05/12 08:07:19;;;;;;;;;;;;;;;18.62;43.36;101453.06;4110782;28;20014;-64
2023/05/12 08:09:21;;;;;;;;;;;;;;;18.65;43.33;101454.50;4111300;28;20014;-64
2023/05/12 08:11:23;;;;;;;;;;;;;;;18.68;43.31;101454.94;4112358;28;20008;-65
2023/05/12 08:13:25;;;;;;;;;;;;;;;18.69;43.12;101447.56;4111948;28;20026;-64
2023/05/12 08:15:27;;;;;;;;;;;;;;;18.73;43.03;101457.88;4110527;28;20041;-66
2023/05/12 08:17:30;;;;;;;;;;;;;;;18.76;42.65;101459.34;4110587;28;20029;-66
2023/05/12 08:19:32;;;;;;;;;;;;;;;18.79;41.82;101458.06;4111276;28;20013;-66
2023/05/12 08:21:34;;;;;;;;;;;;;;;18.78;42.18;101454.50;4110551;28;20790;-65
2023/05/12 08:23:37;;;;;;;;;;;;;;;18.78;42.45;101451.75;4109780;28;20468;-65
2023/05/12 08:25:40;;;;;;;;;;;;;;;18.80;41.54;101446.06;4110647;28;20009;-65
2023/05/12 08:27:42;;;;;;;;;;;;;;;18.86;42.12;101453.47;4110166;28;20361;-66
2023/05/12 08:29:44;;;;;;;;;;;;;;;18.86;41.62;101457.03;4111688;28;20024;-66
2023/05/12 08:31:46;;;;;;;;;;;;;;;18.83;42.12;101443.75;4110155;28;20013;-65
2023/05/12 08:33:49;;;;;;;;;;;;;;;18.88;41.54;101454.91;4110371;28;20025;-63
2023/05/12 08:35:51;;;;;;;;;;;;;;;18.89;42.01;101453.88;4110648;28;20033;-65
2023/05/12 08:37:53;;;;;;;;;;;;;;;18.95;42.00;101456.78;4110006;28;20024;-65
2023/05/12 08:39:55;;;;;;;;;;;;;;;18.97;41.61;101454.69;4109965;28;20021;-65
2023/05/12 08:42:01;;;;;;;;;;;;;;;18.96;41.34;101459.31;4110402;28;20090;-65
2023/05/12 08:44:03;;;;;;;;;;;;;;;18.98;41.88;101451.75;4109690;28;20025;-65
2023/05/12 08:46:05;;;;;;;;;;;;;;;18.99;41.78;101450.66;4107698;28;20029;-65
2023/05/12 08:48:08;;;;;;;;;;;;;;;19.04;40.36;101453.63;4107756;28;20025;-65
2023/05/12 08:50:12;;;;;;;;;;;;;;;19.06;41.71;101456.16;4107943;28;20043;-65
2023/05/12 08:52:17;;;;;;;;;;;;;;;19.06;40.50;101456.16;4108282;28;20036;-65
2023/05/12 08:54:19;;;;;;;;;;;;;;;19.11;41.28;101450.84;4107611;28;20029;-65
2023/05/12 08:56:21;;;;;;;;;;;;;;;19.12;40.99;101452.50;4108046;28;20025;-65
2023/05/12 08:58:23;;;;;;;;;;;;;;;19.15;41.26;101454.00;4108030;28;20018;-65
2023/05/12 09:00:27;;;;;;;;;;;;;;;19.15;39.68;101460.28;4104252;28;20021;-65
2023/05/12 09:02:29;;;;;;;;;;;;;;;19.17;40.25;101450.00;4104613;28;20151;-65
2023/05/12 09:04:31;;;;;;;;;;;;;;;19.18;40.70;101451.66;4105098;28;20448;-65
2023/05/12 09:06:35;;;;;;;;;;;;;;;19.19;40.15;101449.78;4103621;28;20009;-64
2023/05/12 09:08:39;;;;;;;;;;;;;;;19.21;40.31;101450.38;4089682;28;20022;-63
2023/05/12 09:10:41;;;;;;;;;;;;;;;19.24;39.67;101452.69;4104259;28;20028;-64
2023/05/12 09:12:45;;;;;;;;;;;;;;;19.26;40.29;101450.56;4104441;28;20369;-64
2023/05/12 09:14:48;;;;;;;;;;;;;;;19.24;39.89;101447.22;4105830;28;20025;-65
2023/05/12 09:16:50;;;;;;;;;;;;;;;19.26;40.37;101439.59;4105563;28;20437;-64
2023/05/12 09:18:55;;;;;;;;;;;;;;;19.29;39.46;101439.16;4104904;28;19926;-65
2023/05/12 09:20:57;;;;;;;;;;;;;;;19.30;38.76;101449.09;4088549;29;20029;-63
2023/05/12 09:23:11;;;;;;;;;;;;;;;19.33;38.67;101439.59;4105479;28;19937;-62
2023/05/12 09:25:17;;;;;;;;;;;;;;;19.35;39.35;101445.69;4104584;28;20397;-64
2023/05/12 09:27:24;;;;;;;;;;;;;;;19.37;39.36;101441.69;4087349;28;20424;-63
2023/05/12 09:29:26;;;;;;;;;;;;;;;19.37;38.27;101444.44;4072641;29;19934;-64
2023/05/12 09:31:29;;;;;;;;;;;;;;;19.35;38.66;101441.03;4104147;28;19926;-63
2023/05/12 09:33:31;;;;;;;;;;;;;;;19.40;38.33;101443.13;4086958;29;20022;-65
2023/05/12 09:35:38;;;;;;;;;;;;;;;19.45;38.32;101443.31;4104580;28;20074;-64
2023/05/12 09:37:40;;;;;;;;;;;;;;;19.43;37.79;101429.81;4072870;29;19927;-65
2023/05/12 09:39:45;;;;;;;;;;;;;;;19.45;37.75;101433.19;4086087;29;19950;-64
2023/05/12 09:41:48;;;;;;;;;;;;;;;19.41;37.25;101437.44;4086364;29;19935;-64
2023/05/12 09:43:52;;;;;;;;;;;;;;;19.40;38.29;101433.03;4104315;28;19941;-65
2023/05/12 09:45:55;;;;;;;;;;;;;;;19.40;37.86;101434.91;4104882;28;19926;-64
2023/05/12 09:47:57;;;;;;;;;;;;;;;19.40;38.35;101437.66;4056453;29;19978;-64
2023/05/12 09:50:01;;;;;;;;;;;;;;;19.43;37.51;101431.72;4101278;28;20033;-64
2023/05/12 09:52:04;;;;;;;;;;;;;;;19.45;38.47;101426.88;4087514;28;20042;-65
2023/05/12 09:54:06;;;;;;;;;;;;;;;19.48;38.14;101436.56;4071568;29;20376;-65
2023/05/12 09:56:09;;;;;;;;;;;;;;;19.51;38.47;101426.00;4104301;28;20381;-64
2023/05/12 09:58:11;;;;;;;;;;;;;;;19.54;38.45;101427.47;4104803;28;20460;-64
2023/05/12 10:00:16;;;;;;;;;;;;;;;19.59;38.47;101424.88;4103676;28;20017;-63
2023/05/12 10:02:18;;;;;;;;;;;;;;;19.58;38.51;101434.19;4103222;28;20403;-64
2023/05/12 10:04:20;;;;;;;;;;;;;;;19.59;38.84;101423.00;4100257;28;20021;-64
2023/05/12 10:06:23;;;;;;;;;;;;;;;19.66;38.54;101416.66;4085297;29;19977;-64
2023/05/12 10:08:25;;;;;;;;;;;;;;;19.64;38.27;101414.13;4102716;28;20065;-64
2023/05/12 10:10:27;;;;;;;;;;;;;;;19.66;36.83;101413.91;4100053;28;20024;-62
2023/05/12 10:12:31;;;;;;;;;;;;;;;19.68;38.21;101422.75;4070869;29;20021;-64
2023/05/12 10:14:34;;;;;;;;;;;;;;;19.71;38.43;101417.66;4104272;28;20026;-64
2023/05/12 10:16:36;;;;;;;;;;;;;;;19.69;38.16;101421.69;4104798;28;20403;-64
2023/05/12 10:18:38;;;;;;;;;;;;;;;19.70;38.51;101417.88;4104115;28;20464;-63
2023/05/12 10:20:41;;;;;;;;;;;;;;;19.77;38.09;101425.00;4104026;28;20026;-64
2023/05/12 10:22:43;;;;;;;;;;;;;;;19.75;38.11;101420.81;4103038;28;20022;-64
2023/05/12 10:24:45;;;;;;;;;;;;;;;19.78;38.14;101423.09;4102128;28;20124;-64
2023/05/12 10:26:48;;;;;;;;;;;;;;;19.75;38.50;101424.38;4101990;28;19934;-63
2023/05/12 10:28:51;;;;;;;;;;;;;;;19.74;38.53;101417.19;4102018;28;20033;-64
2023/05/12 10:30:53;;;;;;;;;;;;;;;19.83;38.42;101408.72;4103159;28;20540;-63
2023/05/12 10:32:58;;;;;;;;;;;;;;;19.82;38.17;101405.16;4102641;28;20461;-64
2023/05/12 10:35:18;;;;;;;;;;;;;;;19.88;38.51;101419.88;4102489;28;20595;-64
2023/05/12 10:37:21;;;;;;;;;;;;;;;19.92;37.86;101412.88;4102637;28;20013;-64
2023/05/12 10:39:27;;;;;;;;;;;;;;;19.89;37.72;101416.94;4102675;28;20042;-64